KMTJ/MTJ METAR and TAF weather

Enter ICAO airport designator
Station Type Date Time Source
KMTJ METAR 2022/08/13 11:53 UTC NOAA

KMTJ 131153Z AUTO 12003KT 10SM CLR 16/09 A3029 RMK AO2 SLP174 T01560094 10211 20150 53007


Station Type Date Time Source
KMTJ Decoded METAR 2022/08/13 11:53 UTC NOAA

MONTROSE REGIONAL AIRPORT, CO, United States (KMTJ) 38-30N 107-54W 1750M
Aug 13, 2022 - 07:53 AM EDT / 2022.08.13 1153 UTC
Wind: from the ESE (120 degrees) at 3 MPH (3 KT):0
Visibility: 10 mile(s):0
Sky conditions: clear
Temperature: 60.1 F (15.6 C)
Dew Point: 48.9 F (9.4 C)
Relative Humidity: 66%
Pressure (altimeter): 30.29 in. Hg (1025 hPa)
Pressure tendency: 0.02 inches (0.7 hPa) higher than three hours ago
ob: KMTJ 131153Z AUTO 12003KT 10SM CLR 16/09 A3029 RMK AO2 SLP174 T01560094 10211 20150 53007
cycle: 12

Station Type Date Time Source
KMTJ TAF 2022/08/13 12:24 UTC NOAA

TAF KMTJ 131122Z 1312/1412 15005KT P6SM SKC
FM131500 VRB03KT P6SM FEW100
FM131800 33005KT P6SM FEW100 FEW120
FM132100 29008KT P6SM FEW100 SCT120
FM140200 14008KT P6SM SCT100

Example: see airport list